createdAt,value
2023-03-11T00:01:10.687Z,18.70
2023-03-11T00:03:38.700Z,22.30
2023-03-11T00:06:07.483Z,24.60
2023-03-11T00:08:36.100Z,24.70
2023-03-11T00:11:04.375Z,23.60
2023-03-11T00:13:35.665Z,23.50
2023-03-11T00:16:04.174Z,24.40
2023-03-11T00:18:34.970Z,25.20
2023-03-11T00:21:03.054Z,23.10
2023-03-11T00:23:31.112Z,23.90
2023-03-11T00:26:01.250Z,21.50
2023-03-11T00:28:29.627Z,23.40
2023-03-11T00:30:57.726Z,22.90
2023-03-11T00:33:26.677Z,22.50
2023-03-11T00:35:58.457Z,24.90
2023-03-11T00:38:26.742Z,26.90
2023-03-11T00:40:54.759Z,23.60
2023-03-11T00:43:23.484Z,23.40
2023-03-11T00:45:51.373Z,25.10
2023-03-11T00:48:20.073Z,25.00
2023-03-11T00:50:48.137Z,22.90
2023-03-11T00:53:16.073Z,24.20
2023-03-11T00:55:44.377Z,25.60
2023-03-11T00:58:13.799Z,20.80
2023-03-11T01:00:46.030Z,21.40
2023-03-11T01:03:14.478Z,23.30
2023-03-11T01:05:43.832Z,22.50
2023-03-11T01:08:12.892Z,26.00
2023-03-11T01:10:40.976Z,21.20
2023-03-11T01:13:09.321Z,22.60
2023-03-11T01:15:37.810Z,24.40
2023-03-11T01:18:06.726Z,21.00
2023-03-11T01:20:38.412Z,21.90
2023-03-11T01:23:08.258Z,21.70
2023-03-11T01:25:36.691Z,24.60
2023-03-11T01:28:05.826Z,26.90
2023-03-11T01:30:36.176Z,24.90
2023-03-11T01:33:06.798Z,19.90
2023-03-11T01:35:35.565Z,24.40
2023-03-11T01:38:04.217Z,23.40
2023-03-11T01:40:37.313Z,21.00
2023-03-11T01:43:39.958Z,19.80
2023-03-11T01:46:32.034Z,18.40
2023-03-11T01:49:03.050Z,18.60
2023-03-11T01:51:40.442Z,19.20
2023-03-11T01:54:24.101Z,20.10
2023-03-11T01:56:54.713Z,18.10
2023-03-11T01:59:31.263Z,18.10
2023-03-11T02:02:22.984Z,17.10
2023-03-11T02:04:54.673Z,19.10
2023-03-11T02:07:24.724Z,19.60
2023-03-11T02:10:02.094Z,19.70
2023-03-11T02:12:35.884Z,17.60
2023-03-11T02:15:06.755Z,18.70
2023-03-11T02:17:43.940Z,16.50
2023-03-11T02:20:18.435Z,17.60
2023-03-11T02:22:48.509Z,18.40
2023-03-11T02:25:39.478Z,16.70
2023-03-11T02:28:11.509Z,17.30
2023-03-11T02:30:43.492Z,17.40
2023-03-11T02:33:14.871Z,19.30
2023-03-11T02:35:44.959Z,17.90
2023-03-11T02:38:14.448Z,17.80
2023-03-11T02:40:54.027Z,17.80
2023-03-11T02:43:28.296Z,14.30
2023-03-11T02:45:57.753Z,18.20
2023-03-11T02:48:26.313Z,18.60
2023-03-11T02:50:54.362Z,18.40
2023-03-11T02:53:22.883Z,16.50
2023-03-11T02:55:51.073Z,16.60
2023-03-11T02:58:19.005Z,16.60
2023-03-11T03:00:47.735Z,15.70
2023-03-11T03:03:16.250Z,18.40
2023-03-11T03:05:44.341Z,17.90
2023-03-11T03:08:12.936Z,16.40
2023-03-11T03:10:42.462Z,17.90
2023-03-11T03:13:10.631Z,16.20
2023-03-11T03:15:39.949Z,15.50
2023-03-11T03:18:08.971Z,12.60
2023-03-11T03:20:37.062Z,16.40
2023-03-11T03:23:06.944Z,14.60
2023-03-11T03:25:35.181Z,15.80
2023-03-11T03:28:05.724Z,16.40
2023-03-11T03:30:36.214Z,15.60
2023-03-11T03:33:04.407Z,15.00
2023-03-11T03:35:33.622Z,16.70
2023-03-11T03:38:13.914Z,16.90
2023-03-11T03:40:47.846Z,19.00
2023-03-11T03:43:18.053Z,19.80
2023-03-11T03:45:56.685Z,19.00
2023-03-11T03:48:26.029Z,19.00
2023-03-11T03:50:54.188Z,19.80
2023-03-11T03:53:24.954Z,20.80
2023-03-11T03:55:55.348Z,19.90
2023-03-11T03:58:25.069Z,16.90
2023-03-11T04:00:57.148Z,18.00
2023-03-11T04:03:26.738Z,14.80
2023-03-11T04:06:25.302Z,16.80
2023-03-11T04:09:07.190Z,18.20
2023-03-11T04:11:36.124Z,18.40
2023-03-11T04:14:07.284Z,22.30
2023-03-11T04:16:38.533Z,21.20
2023-03-11T04:19:09.802Z,22.40
2023-03-11T04:21:38.259Z,20.70
2023-03-11T04:24:09.715Z,21.90
2023-03-11T04:26:38.707Z,20.90
2023-03-11T04:29:08.501Z,19.60
2023-03-11T04:31:40.670Z,17.90
2023-03-11T04:34:08.599Z,21.30
2023-03-11T04:36:38.395Z,19.70
2023-03-11T04:39:07.236Z,17.90
2023-03-11T04:41:41.004Z,19.50
2023-03-11T04:44:09.573Z,18.80
2023-03-11T04:46:38.323Z,21.90
2023-03-11T04:49:08.189Z,20.60
2023-03-11T04:51:36.321Z,20.50
2023-03-11T04:54:04.613Z,20.60
2023-03-11T04:56:32.878Z,20.40
2023-03-11T04:59:02.027Z,18.00
2023-03-11T05:01:32.228Z,20.70
2023-03-11T05:04:01.650Z,18.60
2023-03-11T05:06:29.743Z,18.00
2023-03-11T05:08:59.077Z,21.20
2023-03-11T05:11:27.150Z,19.20
2023-03-11T05:13:57.085Z,19.40
2023-03-11T05:16:25.718Z,22.40
2023-03-11T05:18:54.060Z,18.40
2023-03-11T05:21:24.794Z,20.20
2023-03-11T05:23:54.153Z,18.20
2023-03-11T05:26:22.059Z,20.70
2023-03-11T05:28:50.438Z,20.90
2023-03-11T05:31:19.758Z,18.80
2023-03-11T05:33:53.996Z,20.10
2023-03-11T05:36:22.962Z,23.50
2023-03-11T05:38:53.209Z,21.30
2023-03-11T05:41:21.396Z,22.30
2023-03-11T05:43:49.604Z,22.30
2023-03-11T05:46:19.894Z,22.90
2023-03-11T05:48:48.145Z,24.10
2023-03-11T05:51:29.861Z,21.80
2023-03-11T05:53:58.837Z,25.30
2023-03-11T05:56:34.129Z,23.40
2023-03-11T05:59:02.404Z,25.90
2023-03-11T06:01:32.333Z,24.90
2023-03-11T06:04:02.535Z,29.80
2023-03-11T06:06:41.635Z,24.10
2023-03-11T06:09:14.595Z,24.30
2023-03-11T06:11:43.094Z,24.20
2023-03-11T06:14:13.626Z,23.50
2023-03-11T06:16:42.937Z,21.80
2023-03-11T06:19:13.491Z,21.10
2023-03-11T06:21:44.444Z,26.90
2023-03-11T06:24:13.473Z,23.40
2023-03-11T06:26:44.031Z,23.60
2023-03-11T06:29:14.687Z,22.90
2023-03-11T06:31:42.915Z,23.20
2023-03-11T06:34:12.472Z,25.30
2023-03-11T06:36:40.552Z,26.90
2023-03-11T06:39:13.119Z,24.60
2023-03-11T06:41:43.083Z,26.30
2023-03-11T06:44:11.820Z,29.10
2023-03-11T06:46:40.404Z,29.80
2023-03-11T06:49:08.535Z,29.60
2023-03-11T06:51:37.755Z,29.90
2023-03-11T06:54:07.169Z,27.30
2023-03-11T06:56:40.236Z,27.20
2023-03-11T06:59:09.984Z,24.20
2023-03-11T07:01:38.048Z,22.40
2023-03-11T07:04:07.658Z,23.40
2023-03-11T07:06:37.262Z,23.50
2023-03-11T07:09:14.183Z,28.00
2023-03-11T07:11:44.651Z,30.90
2023-03-11T07:14:16.588Z,26.00
2023-03-11T07:16:47.960Z,26.40
2023-03-11T07:19:25.673Z,28.20
2023-03-11T07:21:53.839Z,25.70
2023-03-11T07:24:22.199Z,27.30
2023-03-11T07:26:51.201Z,29.00
2023-03-11T07:29:20.298Z,26.60
2023-03-11T07:31:49.535Z,22.40
2023-03-11T07:34:18.954Z,23.90
2023-03-11T07:36:48.535Z,26.70
2023-03-11T07:39:19.052Z,28.20
2023-03-11T07:41:47.788Z,22.10
2023-03-11T07:44:17.482Z,22.70
2023-03-11T07:46:46.205Z,22.70
2023-03-11T07:49:15.222Z,28.50
2023-03-11T07:51:44.846Z,25.50
2023-03-11T07:54:13.839Z,25.70
2023-03-11T07:56:43.301Z,24.10
2023-03-11T07:59:13.861Z,24.70
2023-03-11T08:01:47.458Z,25.90
2023-03-11T08:04:17.402Z,21.40
2023-03-11T08:06:47.743Z,28.10
2023-03-11T08:09:16.037Z,26.40
2023-03-11T08:11:44.837Z,24.50
2023-03-11T08:14:13.005Z,26.30
2023-03-11T08:16:42.265Z,28.80
2023-03-11T08:19:14.068Z,25.90
2023-03-11T08:21:42.219Z,24.70
2023-03-11T08:24:13.300Z,26.20
2023-03-11T08:26:42.353Z,28.00
2023-03-11T08:29:11.226Z,26.20
2023-03-11T08:31:39.785Z,25.70
2023-03-11T08:34:10.521Z,25.50
2023-03-11T08:36:38.679Z,23.60
2023-03-11T08:39:07.095Z,24.40
2023-03-11T08:41:35.227Z,26.10
2023-03-11T08:44:03.725Z,24.70
2023-03-11T08:46:35.627Z,22.00
2023-03-11T08:49:07.138Z,25.80
2023-03-11T08:51:36.793Z,25.20
2023-03-11T08:54:10.195Z,25.20
2023-03-11T08:56:39.519Z,19.70
2023-03-11T08:59:08.627Z,21.10
2023-03-11T09:01:37.737Z,23.00
2023-03-11T09:04:05.800Z,24.10
2023-03-11T09:06:44.338Z,22.80
2023-03-11T09:09:13.771Z,24.60
2023-03-11T09:11:42.039Z,24.10
2023-03-11T09:14:10.148Z,20.40
2023-03-11T09:16:38.735Z,22.50
2023-03-11T09:19:07.624Z,23.30
2023-03-11T09:21:38.211Z,24.90
2023-03-11T09:24:06.769Z,26.30
2023-03-11T09:26:35.141Z,26.70
2023-03-11T09:29:03.461Z,30.50
2023-03-11T09:31:31.524Z,31.20
2023-03-11T09:33:59.622Z,33.20
2023-03-11T09:36:28.130Z,31.50
2023-03-11T09:38:56.213Z,31.50
2023-03-11T09:41:58.005Z,34.60
2023-03-11T09:44:34.281Z,34.20
2023-03-11T09:47:27.365Z,36.10
2023-03-11T09:51:03.533Z,34.70
2023-03-11T09:53:37.089Z,33.10
2023-03-11T09:56:08.273Z,37.70
2023-03-11T09:58:50.783Z,33.00
2023-03-11T10:01:45.142Z,30.80
2023-03-11T10:04:20.252Z,33.70
2023-03-11T10:06:49.009Z,34.10
2023-03-11T10:09:39.469Z,32.40
2023-03-11T10:12:23.626Z,33.60
2023-03-11T10:15:17.446Z,39.70
2023-03-11T10:17:59.836Z,40.10
2023-03-11T10:20:42.348Z,40.20
2023-03-11T10:23:26.238Z,39.00
2023-03-11T10:26:03.049Z,37.40
2023-03-11T10:28:39.434Z,39.60
2023-03-11T10:31:33.334Z,42.40
2023-03-11T10:34:13.755Z,42.10
2023-03-11T10:37:07.463Z,39.80
2023-03-11T10:39:35.692Z,42.10
2023-03-11T10:42:06.381Z,39.90
2023-03-11T10:44:38.451Z,37.70
2023-03-11T10:47:12.537Z,39.60
2023-03-11T10:49:40.823Z,40.20
2023-03-11T10:52:09.164Z,34.30
2023-03-11T10:54:46.479Z,35.00
2023-03-11T10:57:38.921Z,35.40
2023-03-11T11:00:17.257Z,29.30
2023-03-11T11:02:58.272Z,29.80
2023-03-11T11:05:32.855Z,30.00
2023-03-11T11:08:16.077Z,31.70
2023-03-11T11:10:55.176Z,33.80
2023-03-11T11:13:26.745Z,35.40
2023-03-11T11:16:03.378Z,32.10
2023-03-11T11:18:35.517Z,33.60
2023-03-11T11:21:07.990Z,34.90
2023-03-11T11:23:41.266Z,32.40
2023-03-11T11:26:20.786Z,33.90
2023-03-11T11:29:17.043Z,31.90
2023-03-11T11:31:47.472Z,32.40
2023-03-11T11:34:31.445Z,32.60
2023-03-11T11:37:05.477Z,32.60
2023-03-11T11:39:51.576Z,31.40
2023-03-11T11:42:21.153Z,30.40
2023-03-11T11:44:56.770Z,31.10
2023-03-11T11:47:33.180Z,33.20
2023-03-11T11:50:05.541Z,33.50
2023-03-11T11:52:53.718Z,29.50
2023-03-11T11:55:28.460Z,31.90
2023-03-11T11:57:57.416Z,33.90
2023-03-11T12:00:42.885Z,31.60
2023-03-11T12:03:43.597Z,32.50
2023-03-11T12:06:27.086Z,27.50
2023-03-11T12:09:16.523Z,28.90
2023-03-11T12:11:56.154Z,31.30
2023-03-11T12:14:46.086Z,34.60
2023-03-11T12:17:19.279Z,33.30
2023-03-11T12:19:56.227Z,35.40
2023-03-11T12:22:49.186Z,29.20
2023-03-11T12:25:32.740Z,29.60
2023-03-11T12:28:12.282Z,31.40
2023-03-11T12:30:48.794Z,30.80
2023-03-11T12:33:42.823Z,31.40
2023-03-11T12:36:32.394Z,29.30
2023-03-11T12:39:03.339Z,33.40
2023-03-11T12:41:41.968Z,29.80
2023-03-11T12:44:23.677Z,28.30
2023-03-11T12:46:54.503Z,29.40
2023-03-11T12:49:31.787Z,31.10
2023-03-11T12:52:04.605Z,31.90
2023-03-11T12:54:35.674Z,29.20
2023-03-11T12:57:18.959Z,26.70
2023-03-11T13:00:17.556Z,30.00
2023-03-11T13:03:16.972Z,23.20
2023-03-11T13:06:04.075Z,25.10
2023-03-11T13:08:57.139Z,23.30
2023-03-11T13:11:34.344Z,24.00
2023-03-11T13:14:16.441Z,25.10
2023-03-11T13:16:46.819Z,22.90
2023-03-11T13:19:27.279Z,25.10
2023-03-11T13:22:00.408Z,21.80
2023-03-11T13:24:31.561Z,26.90
2023-03-11T13:26:59.643Z,25.20
2023-03-11T13:29:40.042Z,25.10
2023-03-11T13:32:29.961Z,25.20
2023-03-11T13:35:36.048Z,25.00
2023-03-11T13:38:31.752Z,20.90
2023-03-11T13:41:03.258Z,24.40
2023-03-11T13:43:31.373Z,26.70
2023-03-11T13:46:08.155Z,24.80
2023-03-11T13:48:42.468Z,25.70
2023-03-11T13:51:20.371Z,22.70
2023-03-11T13:53:57.080Z,22.10
2023-03-11T13:56:24.973Z,28.50
2023-03-11T13:58:53.204Z,23.50
2023-03-11T14:01:21.401Z,26.20
2023-03-11T14:03:51.914Z,24.00
2023-03-11T14:06:20.785Z,23.00
2023-03-11T14:08:57.366Z,24.70
2023-03-11T14:11:32.040Z,29.60
2023-03-11T14:14:01.873Z,22.50
2023-03-11T14:16:43.679Z,25.10
2023-03-11T14:19:19.231Z,26.20
2023-03-11T14:21:51.875Z,23.60
2023-03-11T14:24:25.361Z,28.00
2023-03-11T14:26:56.669Z,22.30
2023-03-11T14:29:34.605Z,29.50
2023-03-11T14:32:16.788Z,22.10
2023-03-11T14:34:46.156Z,22.60
2023-03-11T14:37:37.230Z,24.60
2023-03-11T14:40:34.225Z,23.60
2023-03-11T14:43:06.487Z,25.10
2023-03-11T14:45:37.540Z,21.70
2023-03-11T14:48:18.119Z,22.20
2023-03-11T14:50:49.726Z,27.80
2023-03-11T14:53:34.198Z,21.70
2023-03-11T14:56:08.749Z,24.20
2023-03-11T14:58:41.752Z,24.40
2023-03-11T15:01:17.462Z,21.30
2023-03-11T15:03:53.644Z,20.40
2023-03-11T15:06:29.970Z,18.30
2023-03-11T15:09:08.286Z,19.00
2023-03-11T15:11:48.040Z,18.50
2023-03-11T15:14:17.415Z,18.40
2023-03-11T15:16:46.078Z,24.80
2023-03-11T15:19:44.404Z,20.00
2023-03-11T15:22:39.913Z,21.20
2023-03-11T15:25:19.801Z,18.90
2023-03-11T15:27:47.827Z,20.60
2023-03-11T15:30:22.110Z,23.30
2023-03-11T15:32:51.856Z,24.90
2023-03-11T15:35:29.063Z,21.80
2023-03-11T15:38:27.838Z,22.40
2023-03-11T15:41:01.915Z,23.90
2023-03-11T15:43:47.621Z,22.80
2023-03-11T15:46:16.113Z,21.20
2023-03-11T15:48:45.624Z,22.40
2023-03-11T15:51:19.389Z,22.90
2023-03-11T15:53:48.764Z,23.40
2023-03-11T15:56:24.796Z,19.90
2023-03-11T15:58:53.889Z,23.50
2023-03-11T16:01:28.625Z,24.90
2023-03-11T16:03:57.018Z,27.70
2023-03-11T16:06:25.222Z,23.10
2023-03-11T16:08:53.654Z,21.20
2023-03-11T16:11:23.021Z,22.10
2023-03-11T16:13:52.660Z,23.60
2023-03-11T16:16:20.870Z,21.00
2023-03-11T16:18:48.890Z,23.40
2023-03-11T16:21:20.409Z,22.10
2023-03-11T16:26:22.753Z,22.00
2023-03-11T16:28:51.252Z,21.80
2023-03-11T16:31:19.374Z,21.70
2023-03-11T16:33:48.020Z,20.80
2023-03-11T16:36:16.468Z,21.60
2023-03-11T16:38:50.649Z,22.30
2023-03-11T16:41:18.783Z,22.30
2023-03-11T16:43:47.317Z,21.00
2023-03-11T16:46:15.675Z,21.10
2023-03-11T16:48:43.636Z,21.00
2023-03-11T16:51:11.742Z,25.80
2023-03-11T16:53:40.121Z,24.20
2023-03-11T16:56:08.098Z,25.70
2023-03-11T16:58:36.022Z,28.80
2023-03-11T17:01:04.206Z,29.00
2023-03-11T17:03:42.038Z,27.60
2023-03-11T17:06:10.717Z,30.70
2023-03-11T17:08:39.446Z,32.30
2023-03-11T17:11:17.898Z,28.30
2023-03-11T17:13:46.729Z,28.00
2023-03-11T17:16:14.881Z,24.90
2023-03-11T17:18:43.167Z,25.40
2023-03-11T17:21:13.608Z,29.40
2023-03-11T17:23:42.736Z,31.70
2023-03-11T17:26:14.237Z,26.00
2023-03-11T17:28:43.481Z,26.50
2023-03-11T17:31:14.636Z,32.30
2023-03-11T17:33:44.652Z,33.20
2023-03-11T17:36:16.327Z,33.60
2023-03-11T17:38:47.295Z,36.50
2023-03-11T17:41:17.370Z,31.00
2023-03-11T17:43:46.386Z,32.20
2023-03-11T17:46:19.157Z,29.20
2023-03-11T17:48:49.819Z,37.50
2023-03-11T17:51:20.887Z,32.10
2023-03-11T17:56:22.643Z,27.70
2023-03-11T17:58:51.946Z,26.40
2023-03-11T18:01:23.704Z,25.90
2023-03-11T18:06:21.651Z,28.40
2023-03-11T18:08:55.094Z,25.00
2023-03-11T18:11:27.813Z,25.30
2023-03-11T18:13:56.305Z,29.20
2023-03-11T18:16:28.553Z,28.80
2023-03-11T18:18:57.619Z,38.40
2023-03-11T18:21:29.302Z,36.80
2023-03-11T18:24:00.367Z,34.50
2023-03-11T18:26:31.647Z,30.20
2023-03-11T18:29:00.610Z,29.60
2023-03-11T18:31:30.696Z,29.20
2023-03-11T18:34:07.341Z,28.50
2023-03-11T18:36:37.474Z,31.70
2023-03-11T18:39:12.384Z,36.60
2023-03-11T18:41:42.857Z,36.20
2023-03-11T18:44:16.141Z,36.00
2023-03-11T18:46:46.218Z,41.00
2023-03-11T18:49:14.337Z,40.60
2023-03-11T18:51:44.119Z,43.30
2023-03-11T18:54:12.749Z,40.60
2023-03-11T18:56:41.364Z,38.90
2023-03-11T18:59:12.082Z,37.20
2023-03-11T19:01:40.374Z,33.80
2023-03-11T19:04:10.135Z,35.80
2023-03-11T19:06:38.451Z,36.50
2023-03-11T19:09:06.780Z,44.30
2023-03-11T19:11:35.280Z,46.10
2023-03-11T19:14:04.623Z,44.50
2023-03-11T19:16:32.683Z,39.80
2023-03-11T19:19:01.468Z,44.00
2023-03-11T19:21:29.857Z,36.20
2023-03-11T19:23:58.107Z,38.40
2023-03-11T19:26:43.216Z,30.40
2023-03-11T19:29:13.945Z,32.10
2023-03-11T19:31:46.232Z,33.40
2023-03-11T19:34:14.444Z,28.80
2023-03-11T19:36:42.470Z,28.40
2023-03-11T19:39:10.784Z,24.10
2023-03-11T19:41:39.213Z,26.80
2023-03-11T19:44:07.207Z,27.30
2023-03-11T19:46:36.358Z,25.00
2023-03-11T19:49:04.886Z,23.20
2023-03-11T19:51:48.593Z,20.90
2023-03-11T19:54:18.705Z,22.80
2023-03-11T19:56:50.432Z,21.20
2023-03-11T19:59:19.133Z,23.20
2023-03-11T20:01:47.402Z,22.00
2023-03-11T20:04:16.737Z,21.50
2023-03-11T20:06:45.595Z,19.70
2023-03-11T20:09:16.264Z,19.60
2023-03-11T20:11:45.738Z,19.30
2023-03-11T20:14:15.683Z,21.40
2023-03-11T20:16:43.910Z,18.70
2023-03-11T20:19:13.503Z,16.30
2023-03-11T20:21:45.371Z,18.40
2023-03-11T20:24:16.223Z,16.80
2023-03-11T20:26:45.611Z,16.60
2023-03-11T20:29:13.691Z,17.50
2023-03-11T20:31:42.220Z,16.60
2023-03-11T20:34:11.447Z,17.20
2023-03-11T20:36:42.964Z,15.80
2023-03-11T20:39:11.692Z,16.90
2023-03-11T20:41:40.838Z,14.30
2023-03-11T20:44:12.732Z,12.30
2023-03-11T20:46:42.201Z,14.10
2023-03-11T20:49:11.563Z,15.40
2023-03-11T20:51:41.887Z,15.70
2023-03-11T20:54:17.005Z,15.20
2023-03-11T20:59:16.326Z,12.90
2023-03-11T21:01:45.815Z,14.20
2023-03-11T21:04:16.336Z,11.00
2023-03-11T21:06:49.867Z,13.80
2023-03-11T21:09:19.211Z,11.20
2023-03-11T21:11:47.211Z,10.10
2023-03-11T21:14:17.748Z,10.80
2023-03-11T21:16:46.051Z,13.00
2023-03-11T21:19:14.657Z,11.60
2023-03-11T21:21:48.010Z,11.40
2023-03-11T21:24:16.000Z,11.70
2023-03-11T21:26:44.454Z,10.20
2023-03-11T21:29:13.529Z,11.40
2023-03-11T21:31:41.839Z,10.50
2023-03-11T21:34:11.787Z,12.60
2023-03-11T21:36:40.671Z,13.20
2023-03-11T21:39:10.360Z,12.00
2023-03-11T21:41:39.858Z,12.50
2023-03-11T21:44:08.566Z,10.60
2023-03-11T21:46:36.926Z,8.30
2023-03-11T21:49:05.749Z,10.80
2023-03-11T21:51:35.471Z,8.60
2023-03-11T21:54:05.373Z,10.10
2023-03-11T21:56:35.427Z,8.40
2023-03-11T21:59:03.976Z,10.60
2023-03-11T22:04:03.836Z,7.90
2023-03-11T22:06:33.671Z,7.80
2023-03-11T22:09:02.650Z,7.60
2023-03-11T22:11:32.176Z,7.00
2023-03-11T22:14:01.046Z,9.70
2023-03-11T22:16:29.938Z,8.20
2023-03-11T22:18:59.914Z,7.60
2023-03-11T22:21:28.288Z,6.70
2023-03-11T22:23:56.273Z,8.90
2023-03-11T22:26:24.201Z,6.10
2023-03-11T22:28:52.413Z,7.70
2023-03-11T22:31:20.609Z,8.60
2023-03-11T22:33:49.611Z,5.30
2023-03-11T22:36:18.261Z,7.20
2023-03-11T22:38:46.321Z,6.10
2023-03-11T22:41:19.268Z,4.50
2023-03-11T22:43:47.401Z,5.30
2023-03-11T22:46:15.477Z,5.70
2023-03-11T22:48:43.857Z,4.00
2023-03-11T22:51:15.623Z,3.50
2023-03-11T22:53:43.737Z,4.20
2023-03-11T22:56:15.501Z,4.00
2023-03-11T22:58:46.631Z,6.70
2023-03-11T23:01:16.554Z,4.40
2023-03-11T23:03:45.355Z,4.40
2023-03-11T23:06:17.599Z,4.10
2023-03-11T23:08:46.341Z,3.40
2023-03-11T23:11:17.770Z,4.70
2023-03-11T23:16:16.896Z,4.90
2023-03-11T23:18:52.325Z,5.90
2023-03-11T23:21:24.305Z,5.10
2023-03-11T23:23:53.227Z,5.30
2023-03-11T23:26:22.470Z,5.80
2023-03-11T23:28:53.747Z,8.10
2023-03-11T23:31:25.246Z,9.50
2023-03-11T23:33:54.620Z,4.20
2023-03-11T23:36:27.074Z,5.20
2023-03-11T23:38:58.738Z,6.30
2023-03-11T23:41:27.886Z,6.50
2023-03-11T23:43:55.994Z,7.80
2023-03-11T23:46:24.454Z,8.50
2023-03-11T23:48:52.746Z,6.90
2023-03-11T23:51:20.651Z,6.60
2023-03-11T23:53:49.136Z,6.90
2023-03-11T23:56:18.753Z,8.80
2023-03-11T23:58:48.777Z,6.70
